Latest Weather Observations for Mount Moornapa

IDV60801

Issued at 4:35 pm EST Thursday 2 October 2014 (issued every 30 minutes, with the page automatically refreshed every 10 minutes)

About weather observations | Map of weather stations | Latest weather observations for VIC | Other Formats
Station Details ID: 085296 Name: MOUNT MOORNAPA Lat: -37.75 Lon: 147.14 Height: 480.0 m
Data from the previous 72 hours. | See also: Recent months at Mount Moornapa
Date/Time
EST
Temp
°C
App
Temp
°C
Dew
Point
Rel
Hum
%
Delta-T
°C
Wind Press
QNH
hPa
Press
MSL
hPa
Rain
since 9 am
mm
Dir
 
Spd
km/h
Gust
km/h
Spd
kts
Gust
kts
02/04:30pm 14.4 11.2 7.0 61 3.7 SW 13 30 7 16 - - 0.0
02/04:00pm 14.1 10.8 6.2 59 3.9 SSW 13 37 7 20 - - 0.0
02/03:30pm 15.0 13.3 7.5 61 3.8 SW 6 17 3 9 - - 0.0
02/03:00pm 14.6 11.4 6.7 59 3.9 SSW 13 26 7 14 - - 0.0
02/02:30pm 15.4 13.0 7.2 58 4.2 SW 9 22 5 12 - - 0.0
02/02:00pm 15.5 13.1 7.0 57 4.3 SW 9 32 5 17 - - 0.0
02/01:30pm 15.8 13.6 7.8 59 4.1 SSW 9 33 5 18 - - 0.0
02/01:00pm 15.5 13.3 8.0 61 3.9 SSW 9 22 5 12 - - 0.0
02/12:30pm 15.3 13.0 7.3 59 4.1 SSW 9 22 5 12 - - 0.0
02/12:00pm 15.5 13.2 7.3 58 4.2 SW 9 24 5 13 - - 0.0
02/11:30am 15.9 14.0 7.4 57 4.3 W 7 17 4 9 - - 0.0
02/11:00am 13.6 11.3 5.5 58 3.9 WSW 7 13 4 7 - - 0.0
02/10:30am 13.5 11.4 5.9 60 3.7 WSW 6 19 3 10 - - 0.0
02/10:00am 13.5 11.3 6.4 62 3.5 WSW 7 19 4 10 - - 0.0
02/09:30am 11.9 9.0 4.6 61 3.4 WSW 9 20 5 11 - - 0.0
02/09:00am 11.5 9.2 4.9 64 3.1 WSW 6 15 3 8 - - 0.2
02/08:30am 10.2 7.1 3.7 64 2.9 WNW 9 19 5 10 - - 0.2
02/08:00am 8.6 5.0 3.0 68 2.5 NW 11 17 6 9 - - 0.2
02/07:30am 6.8 3.2 2.9 76 1.7 NW 11 17 6 9 - - 0.2
02/07:00am 7.3 3.2 2.4 71 2.1 W 13 22 7 12 - - 0.2
02/06:30am 7.2 3.1 2.5 72 2.0 W 13 20 7 11 - - 0.2
02/06:00am 5.4 2.0 2.1 79 1.4 NW 9 11 5 6 - - 0.2
02/05:30am 4.6 1.2 2.0 83 1.1 NNW 9 13 5 7 - - 0.2
02/05:00am 5.2 2.3 2.4 82 1.2 WNW 7 11 4 6 - - 0.2
02/04:30am 6.0 3.0 2.3 77 1.6 W 7 13 4 7 - - 0.2
02/04:00am 6.5 3.6 2.4 75 1.7 W 7 11 4 6 - - 0.2
02/03:30am 6.7 3.7 2.2 73 1.9 WNW 7 11 4 6 - - 0.2
02/03:00am 6.7 3.7 2.2 73 1.9 W 7 15 4 8 - - 0.2
02/02:30am 6.3 3.4 2.6 77 1.6 WNW 7 9 4 5 - - 0.2
02/02:00am 6.0 3.3 2.6 79 1.4 NW 6 9 3 5 - - 0.2
02/01:30am 6.5 2.9 2.9 78 1.5 WNW 11 17 6 9 - - 0.2
02/01:00am 6.6 3.4 3.2 79 1.5 NW 9 13 5 7 - - 0.2
02/12:30am 6.6 3.1 3.6 81 1.3 NNW 11 17 6 9 - - 0.2
02/12:00am 6.4 3.3 3.7 83 1.2 NW 9 13 5 7 - - 0.2
 
Date/Time
EST
Temp
°C
App
Temp
°C
Dew
Point
Rel
Hum
%
Delta-T
°C
Wind Press
QNH
hPa
Press
MSL
hPa
Rain
since 9 am
mm
Dir
 
Spd
km/h
Gust
km/h
Spd
kts
Gust
kts
01/11:30pm 7.3 3.0 3.0 74 1.9 W 15 26 8 14 - - 0.2
01/11:00pm 7.2 3.3 3.3 76 1.7 W 13 22 7 12 - - 0.2
01/10:30pm 7.3 3.4 3.4 76 1.7 W 13 22 7 12 - - 0.2
01/10:00pm 7.5 4.0 3.4 75 1.8 W 11 22 6 12 - - 0.2
01/09:30pm 7.2 3.6 3.1 75 1.8 WSW 11 22 6 12 - - 0.2
01/09:00pm 7.7 3.4 3.2 73 2.0 WSW 15 30 8 16 - - 0.2
01/08:30pm 7.8 3.6 3.7 75 1.8 WSW 15 28 8 15 - - 0.2
01/08:00pm 7.6 3.8 4.0 78 1.6 WSW 13 33 7 18 - - 0.2
01/07:30pm 7.5 3.4 4.3 80 1.4 WSW 15 28 8 15 - - 0.2
01/07:00pm 7.7 3.6 4.5 80 1.4 WSW 15 30 8 16 - - 0.2
01/06:30pm 7.9 5.0 4.5 79 1.5 SW 9 20 5 11 - - 0.2
01/06:00pm 8.2 5.7 4.0 75 1.9 WSW 6 17 3 9 - - 0.2
01/05:30pm 9.4 5.0 2.7 63 2.9 WSW 15 32 8 17 - - 0.2
01/05:00pm 9.4 5.6 3.8 68 2.5 WSW 13 24 7 13 - - 0.2
01/04:30pm 9.8 6.4 4.0 67 2.6 SW 11 22 6 12 - - 0.2
01/04:00pm 10.0 5.6 2.6 60 3.3 WSW 15 32 8 17 - - 0.2
01/03:30pm 11.1 6.7 2.7 56 3.7 WSW 15 37 8 20 - - 0.2
01/03:00pm 10.7 6.9 4.0 63 3.1 WSW 13 32 7 17 - - 0.2
01/02:30pm 11.1 6.8 3.4 59 3.5 WSW 15 26 8 14 - - 0.2
01/02:00pm 10.0 6.2 4.0 66 2.7 W 13 35 7 19 - - 0.2
01/01:30pm 10.9 6.4 2.0 54 3.9 WSW 15 35 8 19 - - 0.2
01/01:00pm 10.7 8.4 5.7 71 2.4 SSW 7 17 4 9 - - 0.2
01/12:30pm 11.3 8.7 4.3 62 3.2 WSW 7 15 4 8 - - 0.2
01/12:00pm 10.2 7.9 5.0 70 2.4 SW 6 17 3 9 - - 0.2
01/11:30am 9.3 6.3 2.2 61 3.1 WSW 7 19 4 10 - - 0.2
01/11:00am 10.8 7.1 4.3 64 3.0 WSW 13 26 7 14 - - 0.2
01/10:30am 9.0 4.5 4.0 71 2.2 SW 17 43 9 23 - - 0.2
01/10:00am 8.5 5.9 4.1 74 2.0 WSW 7 19 4 10 - - 0.2
01/09:30am 6.2 2.8 4.0 86 1.0 SSW 11 35 6 19 - - 0.2
01/09:00am 8.1 5.1 3.9 75 1.9 SW 9 20 5 11 - - 7.0
01/08:30am 7.2 3.6 2.9 74 1.9 WSW 11 30 6 16 - - 7.0
01/08:00am 6.5 2.1 2.6 76 1.7 W 15 32 8 17 - - 7.0
01/07:30am 5.6 1.1 2.1 78 1.5 W 15 30 8 16 - - 7.0
01/07:00am 5.1 -0.2 1.6 78 1.4 W 19 37 10 20 - - 7.0
01/06:30am 4.5 -0.1 1.7 82 1.1 W 15 26 8 14 - - 7.0
01/06:00am 4.4 -0.6 1.6 82 1.1 W 17 32 9 17 - - 7.0
01/05:30am 4.2 -1.1 1.6 83 1.1 W 19 33 10 18 - - 7.0
01/05:00am 3.8 -1.1 2.3 90 0.6 W 17 28 9 15 - - 7.0
01/04:30am 3.7 -1.1 2.5 92 0.5 W 17 30 9 16 - - 7.0
01/04:00am 3.9 0.9 2.3 89 0.7 WSW 7 22 4 12 - - 6.6
01/03:30am 3.2 -1.3 2.2 93 0.4 WNW 15 32 8 17 - - 6.6
01/03:00am 2.9 -2.0 2.2 95 0.3 WNW 17 37 9 20 - - 6.6
01/02:30am 2.4 -3.1 2.1 98 0.1 W 20 37 11 20 - - 6.6
01/02:09am 2.6 -4.4 2.2 97 0.2 W 28 56 15 30 - - 6.2
01/02:00am 3.0 -2.7 2.7 98 0.1 WSW 22 48 12 26 - - 5.8
01/01:30am 3.4 -0.2 3.0 97 0.2 SW 11 24 6 13 - - 5.4
01/01:00am 3.6 -0.4 2.7 94 0.4 W 13 32 7 17 - - 5.4
01/12:30am 6.2 0.7 0.7 68 2.2 W 19 43 10 23 - - 5.0
01/12:00am 6.1 0.9 0.2 66 2.4 W 17 39 9 21 - - 5.0
 
Date/Time
EST
Temp
°C
App
Temp
°C
Dew
Point
Rel
Hum
%
Delta-T
°C
Wind Press
QNH
hPa
Press
MSL
hPa
Rain
since 9 am
mm
Dir
 
Spd
km/h
Gust
km/h
Spd
kts
Gust
kts
30/11:30pm 6.3 0.8 0.4 66 2.4 W 19 48 10 26 - - 5.0
30/11:00pm 6.1 1.1 1.4 72 1.9 W 17 32 9 17 - - 5.0
30/10:30pm 6.4 1.1 1.7 72 2.0 W 19 41 10 22 - - 5.0
30/10:00pm 6.5 2.0 2.2 74 1.8 WNW 15 30 8 16 - - 5.0
30/09:30pm 6.8 2.0 2.7 75 1.8 WNW 17 33 9 18 - - 5.0
30/09:00pm 6.0 2.2 4.0 87 0.9 WNW 13 20 7 11 - - 4.8
30/08:30pm 6.3 1.8 4.0 85 1.0 W 17 32 9 17 - - 4.8
30/08:00pm 5.8 1.8 4.8 93 0.4 WNW 15 35 8 19 - - 4.8
30/07:30pm 5.6 0.7 5.0 96 0.3 WNW 20 43 11 23 - - 4.8
30/07:00pm 5.7 -1.0 5.4 98 0.1 W 30 57 16 31 - - 3.8
30/06:46pm 6.0 -0.3 5.6 97 0.2 W 28 57 15 31 - - 3.2
30/06:30pm 6.3 2.2 6.2 99 0.0 SSW 17 46 9 25 - - 3.2
30/06:00pm 7.6 2.8 7.5 99 0.0 SW 22 61 12 33 - - 2.8
30/05:37pm 9.8 4.1 8.2 90 0.8 SW 28 63 15 34 - - 0.0
30/05:30pm 11.2 6.9 7.7 79 1.7 SSW 20 54 11 29 - - 0.0
30/05:22pm 13.3 8.7 6.4 63 3.4 SSW 20 44 11 24 - - 0.0
30/05:00pm 18.5 13.7 4.7 40 6.8 NW 19 39 10 21 - - 0.0
30/04:50pm 18.2 11.8 5.1 42 6.5 NW 28 52 15 28 - - 0.0
30/04:30pm 19.4 13.7 4.7 38 7.3 NW 24 48 13 26 - - 0.0
30/04:00pm 20.9 15.6 4.9 35 8.0 NW 22 56 12 30 - - 0.0
30/03:32pm 21.8 15.1 3.9 31 8.9 NW 28 57 15 31 - - 0.0
30/03:30pm 21.7 15.5 4.3 32 8.7 NW 26 54 14 29 - - 0.0
30/03:03pm 21.1 14.3 2.9 30 8.8 NW 28 59 15 32 - - 0.0
30/03:00pm 21.5 15.4 2.7 29 9.1 NW 24 54 13 29 - - 0.0
30/02:47pm 21.8 15.1 3.9 31 8.9 NW 28 63 15 34 - - 0.0
30/02:30pm 22.4 16.9 4.0 30 9.2 NW 22 57 12 31 - - 0.0
30/02:03pm 22.4 15.7 3.5 29 9.3 NW 28 59 15 32 - - 0.0
30/02:00pm 22.6 16.7 3.7 29 9.4 NW 24 59 13 32 - - 0.0
30/01:30pm 22.1 17.5 3.7 30 9.1 WNW 17 35 9 19 - - 0.0
30/01:00pm 22.4 19.1 6.2 35 8.4 W 13 26 7 14 - - 0.0
30/12:30pm 23.3 20.7 6.1 33 9.0 NW 9 17 5 9 - - 0.0
30/12:00pm 22.2 19.0 5.2 33 8.7 WNW 11 24 6 13 - - 0.0
30/11:30am 22.1 20.1 6.3 36 8.2 WNW 6 15 3 8 - - 0.0
30/11:00am 21.1 17.9 5.1 35 8.1 NW 11 28 6 15 - - 0.0
30/10:30am 20.2 17.9 5.8 39 7.3 N 7 17 4 9 - - 0.0
30/10:00am 19.2 17.8 7.3 46 6.2 W 4 7 2 4 - - 0.0
30/09:30am 17.9 16.9 9.0 56 4.7 SW 4 9 2 5 - - 0.0
30/09:00am 17.5 16.2 7.5 52 5.2 WSW 4 11 2 6 - - 0.0
30/08:30am 17.7 15.4 5.9 46 5.9 NNW 7 15 4 8 - - 0.0
30/08:00am 16.7 14.1 5.9 49 5.4 N 9 13 5 7 - - 0.0
30/07:30am 15.1 11.9 5.3 52 4.8 N 11 19 6 10 - - 0.0
30/07:00am 14.1 10.1 4.7 53 4.5 NNW 15 24 8 13 - - 0.0
30/06:30am 14.5 10.8 4.5 51 4.8 NNW 13 26 7 14 - - 0.0
30/06:00am 13.8 9.8 4.9 55 4.2 NNW 15 24 8 13 - - 0.0
30/05:30am 12.4 9.7 5.6 63 3.3 NNE 9 13 5 7 - - 0.0
30/05:00am 12.1 9.7 5.3 63 3.2 NNE 7 13 4 7 - - 0.0
30/04:30am 13.2 10.8 5.1 58 3.9 NNE 7 9 4 5 - - 0.0
30/04:00am 13.9 10.8 3.7 50 4.7 NNE 9 13 5 7 - - 0.0
30/03:30am 13.4 10.3 3.5 51 4.6 N 9 20 5 11 - - 0.0
30/03:00am 13.6 10.9 3.9 52 4.5 NNE 7 11 4 6 - - 0.0
30/02:30am 13.4 10.8 4.0 53 4.4 N 7 11 4 6 - - 0.0
30/02:00am 13.2 11.7 4.9 57 3.9 N 2 6 1 3 - - 0.0
30/01:30am 14.0 11.9 5.6 57 4.1 N 6 7 3 4 - - 0.0
30/01:00am 13.5 11.2 5.7 59 3.8 NNW 7 11 4 6 - - 0.0
30/12:30am 13.8 11.5 5.7 58 3.9 NNW 7 11 4 6 - - 0.0
30/12:00am 13.6 11.7 7.6 67 3.0 N 7 11 4 6 - - 0.0
 
Date/Time
EST
Temp
°C
App
Temp
°C
Dew
Point
Rel
Hum
%
Delta-T
°C
Wind Press
QNH
hPa
Press
MSL
hPa
Rain
since 9 am
mm
Dir
 
Spd
km/h
Gust
km/h
Spd
kts
Gust
kts
29/11:30pm 13.4 12.2 8.0 70 2.7 W 4 7 2 4 - - 0.0
29/11:00pm 13.8 12.6 8.2 69 2.9 SW 4 6 2 3 - - 0.0
29/10:30pm 14.3 12.6 7.4 63 3.5 NNW 6 7 3 4 - - 0.0
29/10:00pm 14.0 12.0 7.3 64 3.4 NNW 7 9 4 5 - - 0.0
29/09:30pm 13.8 11.7 8.4 70 2.8 NNW 9 13 5 7 - - 0.0
29/09:00pm 13.4 10.9 8.0 70 2.7 N 11 13 6 7 - - 0.0
29/08:30pm 13.4 11.2 7.8 69 2.8 NE 9 13 5 7 - - 0.0
29/08:00pm 12.9 11.1 8.0 72 2.5 ENE 7 13 4 7 - - 0.0
29/07:30pm 12.0 9.8 7.9 76 2.1 E 9 19 5 10 - - 0.0
29/07:00pm 11.8 9.2 7.9 77 2.0 E 11 20 6 11 - - 0.0
29/06:30pm 12.6 10.0 7.7 72 2.5 E 11 20 6 11 - - 0.0
29/06:00pm 14.1 12.4 8.5 69 2.9 ESE 7 15 4 8 - - 0.0
29/05:30pm 16.5 15.7 9.7 64 3.6 ESE 4 9 2 5 - - 0.0
29/05:00pm 17.9 16.5 9.5 58 4.5 SSE 7 17 4 9 - - 0.0

Other Formats:

Comma delimited format used in spreadsheet applications
http://www.bom.gov.au/fwo/IDV60801/IDV60801.95913.axf

JavaScript Object Notation format (JSON) in row-major order
http://www.bom.gov.au/fwo/IDV60801/IDV60801.95913.json